createdAt,value
2023-04-16T00:01:06.253Z,64.85475999539403
2023-04-16T00:04:03.089Z,65.47313635924806
2023-04-16T00:07:00.380Z,65.12077140103521
2023-04-16T00:09:55.939Z,65.60231409824519
2023-04-16T00:12:54.479Z,64.81817605753346
2023-04-16T00:15:53.040Z,65.90433271550437
2023-04-16T00:18:52.596Z,65.12804880221792
2023-04-16T00:21:52.198Z,65.83058533436284
2023-04-16T00:24:52.729Z,64.97079954269532
2023-04-16T00:27:52.220Z,65.00388561161756
2023-04-16T00:30:50.840Z,64.31018279224702
2023-04-16T00:33:49.342Z,64.16955513719536
2023-04-16T00:36:44.937Z,64.4931786862316
2023-04-16T00:39:40.478Z,64.2220093382417
2023-04-16T00:42:38.107Z,64.55620498309425
2023-04-16T00:45:34.582Z,64.07185483582111
2023-04-16T00:48:36.126Z,64.86587200347645
2023-04-16T00:51:32.648Z,65.08676299485761
2023-04-16T00:54:32.211Z,64.71229238598485
2023-04-16T00:57:30.806Z,64.159964168575
2023-04-16T01:00:29.388Z,63.84161164675863
2023-04-16T01:03:32.087Z,63.709436758803186
2023-04-16T01:06:30.481Z,64.10496074667702
2023-04-16T01:09:28.000Z,64.20776798596987
2023-04-16T01:12:23.568Z,65.07630650424689
2023-04-16T01:15:21.177Z,65.29550312913238
2023-04-16T01:18:18.655Z,65.12659622479931
2023-04-16T01:21:16.238Z,65.97473716314975
2023-04-16T01:24:13.854Z,65.74183837884297
2023-04-16T01:27:11.355Z,66.24969184132529
2023-04-16T01:30:07.931Z,66.07678905628941
2023-04-16T01:33:04.465Z,66.88463707703563
2023-04-16T01:36:01.028Z,67.2179584942991
2023-04-16T01:38:57.617Z,67.56412915056504
2023-04-16T01:41:54.145Z,67.47801212991871
2023-04-16T01:44:54.653Z,67.689428957513
2023-04-16T01:47:52.321Z,67.49176792466102
2023-04-16T01:50:48.831Z,67.20457546023597
2023-04-16T01:53:44.329Z,66.88855965538615
2023-04-16T01:56:42.945Z,66.62858552387267
2023-04-16T01:59:38.514Z,66.98263341399387
2023-04-16T02:02:40.162Z,67.14455611649939
2023-04-16T02:05:37.595Z,67.337874338665
2023-04-16T02:08:34.180Z,67.73582908133722
2023-04-16T02:11:31.750Z,67.16358094292397
2023-04-16T02:14:27.256Z,67.57965676944404
2023-04-16T02:17:22.856Z,67.94523372857853
2023-04-16T02:20:20.378Z,68.3366798529008
2023-04-16T02:23:15.926Z,68.58778509428875
2023-04-16T02:26:13.504Z,69.16896857293287
2023-04-16T02:29:09.280Z,69.01279295386786
2023-04-16T02:32:04.674Z,69.23881669290799
2023-04-16T02:35:03.200Z,69.83047491417271
2023-04-16T02:37:58.715Z,69.33845910225226
2023-04-16T02:40:54.319Z,69.1235749565683
2023-04-16T02:43:50.912Z,69.61198750932655
2023-04-16T02:46:46.443Z,69.97970585034464
2023-04-16T02:49:41.983Z,70.43079567739764
2023-04-16T02:52:37.559Z,70.4302408166351
2023-04-16T02:55:33.157Z,71.02280826722838
2023-04-16T02:58:28.688Z,70.81711297825282
2023-04-16T03:01:24.271Z,70.57408219074638
2023-04-16T03:04:19.797Z,70.45381801048386
2023-04-16T03:07:17.378Z,71.24965035494355
2023-04-16T03:10:13.899Z,70.64853421414416
2023-04-16T03:13:10.470Z,70.9858053185014
2023-04-16T03:16:08.066Z,70.85133007578911
2023-04-16T03:19:03.540Z,70.95004454384447
2023-04-16T03:21:59.153Z,70.94367258072975
2023-04-16T03:24:54.675Z,70.34880099125503
2023-04-16T03:27:50.265Z,70.42228387647584
2023-04-16T03:30:50.879Z,70.92441447103775
2023-04-16T03:33:47.363Z,70.19010167054857
2023-04-16T03:36:42.977Z,70.82999627504492
2023-04-16T03:39:38.517Z,71.19305608988572
2023-04-16T03:42:36.046Z,70.5419274659515
2023-04-16T03:45:32.660Z,70.54446137915355
2023-04-16T03:48:28.180Z,70.31412535505319
2023-04-16T03:51:24.741Z,69.92993862159031
2023-04-16T03:54:22.867Z,71.00718834346961
2023-04-16T03:57:18.851Z,70.92132382816571
2023-04-16T04:00:14.397Z,71.43171881536192
2023-04-16T04:03:12.184Z,71.42342094840008
2023-04-16T04:06:08.530Z,71.7024469289596
2023-04-16T04:09:04.104Z,71.0267983654986
2023-04-16T04:11:59.686Z,71.22959106870948
2023-04-16T04:14:56.198Z,70.9642353160085
2023-04-16T04:17:52.816Z,71.07400844661719
2023-04-16T04:20:48.346Z,72.06623119765048
2023-04-16T04:23:43.905Z,71.7357272870156
2023-04-16T04:26:40.450Z,72.54395933389475
2023-04-16T04:29:35.998Z,72.60095102591345
2023-04-16T04:32:32.616Z,71.39306178905883
2023-04-16T04:35:28.126Z,71.34285965630689
2023-04-16T04:38:24.704Z,71.18613091996427
2023-04-16T04:41:21.257Z,71.66588224376012
2023-04-16T04:44:17.836Z,70.91639760056941
2023-04-16T04:47:13.369Z,70.84734319314595
2023-04-16T04:50:09.943Z,70.13383060604852
2023-04-16T04:53:09.506Z,70.4273049190657
2023-04-16T04:59:06.600Z,70.80074257837849
2023-04-16T05:02:03.220Z,70.69571061531316
2023-04-16T05:04:59.731Z,70.4927331412058
2023-04-16T05:07:55.230Z,70.43315081644671
2023-04-16T05:10:51.831Z,71.52091767169377
2023-04-16T05:13:47.366Z,71.46729228088824
2023-04-16T05:16:43.008Z,69.88411744833626
2023-04-16T05:19:38.486Z,69.76287822032928
2023-04-16T05:22:34.090Z,70.82896750145007
2023-04-16T05:25:29.643Z,70.12158447104348
2023-04-16T05:28:25.184Z,69.73878385705176
2023-04-16T05:31:20.883Z,69.88857986529374
2023-04-16T05:34:17.305Z,70.43098953485524
2023-04-16T05:37:13.870Z,69.95547799186141
2023-04-16T05:40:10.423Z,70.53320203445271
2023-04-16T05:43:05.973Z,68.84399534227666
2023-04-16T05:46:02.580Z,69.9282160383311
2023-04-16T05:48:59.136Z,68.24805917602649
2023-04-16T05:51:56.671Z,68.52966328449254
2023-04-16T05:54:52.192Z,67.62282554991424
2023-04-16T05:57:47.756Z,66.80052390104804
2023-04-16T06:00:43.324Z,68.36305227640116
2023-04-16T06:03:39.080Z,67.91266745397436
2023-04-16T06:06:34.510Z,67.61558233880783
2023-04-16T06:09:30.088Z,66.06915419929591
2023-04-16T06:12:25.554Z,66.13650074487151
2023-04-16T06:15:21.156Z,65.33267901710461
2023-04-16T06:18:16.700Z,66.05280813726289
2023-04-16T06:21:12.283Z,66.03547984699247
2023-04-16T06:24:07.843Z,65.79925349240575
2023-04-16T06:27:03.380Z,65.9514621231092
2023-04-16T06:29:58.960Z,65.12253284989859
2023-04-16T06:32:54.566Z,64.39247518894304
2023-04-16T06:35:52.082Z,64.7712907532121
2023-04-16T06:38:47.621Z,64.66205493433829
2023-04-16T06:41:43.155Z,63.34260837432502
2023-04-16T06:44:38.764Z,63.889940229873424
2023-04-16T06:47:34.325Z,63.21967623385942
2023-04-16T06:50:30.888Z,62.435810753243274
2023-04-16T06:53:26.457Z,62.95267316091339
2023-04-16T06:56:21.982Z,62.560914592008245
2023-04-16T06:59:17.536Z,60.909957468944484
2023-04-16T07:02:13.333Z,61.84207453531679
2023-04-16T07:05:09.668Z,61.872587589561206
2023-04-16T07:08:06.228Z,61.90644573330059
2023-04-16T07:11:02.829Z,60.91419821687126
2023-04-16T07:13:59.416Z,61.135847688103446
2023-04-16T07:16:55.025Z,60.85058884151448
2023-04-16T07:19:51.491Z,61.3791031481939
2023-04-16T07:22:48.025Z,60.88921320055117
2023-04-16T07:25:44.541Z,60.82032052272265
2023-04-16T07:28:41.171Z,60.02015539059626
2023-04-16T07:31:38.781Z,60.45568366072187
2023-04-16T07:34:34.303Z,59.97222653201195
2023-04-16T07:37:30.841Z,58.96537890792224
2023-04-16T07:40:29.337Z,57.77871604845317
2023-04-16T07:43:25.933Z,56.64021584787405
2023-04-16T07:46:21.847Z,57.027745848975485
2023-04-16T07:49:18.047Z,57.59430422090154
2023-04-16T07:52:14.665Z,59.06999015991169
2023-04-16T07:55:10.165Z,58.53581506501597
2023-04-16T07:58:07.737Z,59.2392217239873
2023-04-16T08:01:04.325Z,59.28847027382357
2023-04-16T08:04:00.069Z,58.24678812160393
2023-04-16T08:06:55.471Z,59.04037802280735
2023-04-16T08:09:52.959Z,58.1313213756581
2023-04-16T08:12:49.555Z,57.73726872037777
2023-04-16T08:15:46.158Z,55.999251694396314
2023-04-16T08:18:46.633Z,55.520330329245276
2023-04-16T08:21:43.205Z,56.68088537238127
2023-04-16T08:24:38.785Z,56.951039301313855
2023-04-16T08:27:34.345Z,57.84999411725022
2023-04-16T08:30:30.913Z,56.823139369788976
2023-04-16T08:33:26.422Z,56.10565032689317
2023-04-16T08:36:23.000Z,57.44310221978192
2023-04-16T08:39:19.580Z,57.03879714935517
2023-04-16T08:42:23.156Z,56.404754959251484
2023-04-16T08:45:19.684Z,55.014873643440126
2023-04-16T08:48:20.200Z,55.705717245399306
2023-04-16T08:51:16.834Z,54.89805104477841
2023-04-16T08:54:24.309Z,54.92950815954628
2023-04-16T08:57:22.846Z,54.057874312790744
2023-04-16T09:00:24.406Z,55.16490570103912
2023-04-16T09:03:23.066Z,54.540463248008045
2023-04-16T09:06:19.512Z,53.307596411337244
2023-04-16T09:09:18.064Z,53.26762103235696
2023-04-16T09:12:15.625Z,53.67523132334453
2023-04-16T09:15:14.203Z,51.921612353677254
2023-04-16T09:18:11.715Z,49.63305710956172
2023-04-16T09:21:09.275Z,47.42187807437422
2023-04-16T09:24:05.871Z,48.34052924631072
2023-04-16T09:27:02.439Z,49.15209786777676
2023-04-16T09:30:12.092Z,49.64256905608472
2023-04-16T09:33:13.526Z,46.87389493955333
2023-04-16T09:36:21.195Z,46.881309181415375
2023-04-16T09:39:19.562Z,48.31933190454262
2023-04-16T09:42:21.143Z,48.20123624183384
2023-04-16T09:45:16.914Z,49.01373417619054
2023-04-16T09:48:13.253Z,50.82655545496761
2023-04-16T09:51:08.799Z,50.16214715352036
2023-04-16T09:54:06.399Z,50.23512668735024
2023-04-16T09:57:02.923Z,50.436383411784135
2023-04-16T10:00:04.450Z,49.4971503803688
2023-04-16T10:03:05.113Z,50.78538494403367
2023-04-16T10:06:06.552Z,49.610731042116626
2023-04-16T10:09:07.122Z,49.72606783973775
2023-04-16T10:12:03.666Z,50.06417504917877
2023-04-16T10:14:59.242Z,48.153867913956525
2023-04-16T10:17:57.805Z,49.487117779592886
2023-04-16T10:20:55.374Z,48.06689431090323
2023-04-16T10:23:52.917Z,49.47823329004515
2023-04-16T10:26:51.413Z,52.90979337256648
2023-04-16T10:29:49.029Z,53.80802213141104
2023-04-16T10:32:46.612Z,53.6612582598639
2023-04-16T10:35:52.362Z,55.613848879547184
2023-04-16T10:38:57.586Z,55.790524102676656
2023-04-16T10:42:02.170Z,57.09686387339704
2023-04-16T10:44:59.743Z,57.32637363436202
2023-04-16T10:47:57.369Z,56.793866556766524
2023-04-16T10:50:56.833Z,55.66995740420043
2023-04-16T10:57:04.961Z,53.003776990106644
2023-04-16T11:00:08.412Z,52.7627623137324
2023-04-16T11:03:05.175Z,52.419873821497355
2023-04-16T11:06:12.538Z,52.99470066929727
2023-04-16T11:09:13.189Z,52.38582763328522
2023-04-16T11:12:12.661Z,53.99027558059007
2023-04-16T11:15:09.176Z,55.09479164707315
2023-04-16T11:18:09.861Z,55.063085368517044
2023-04-16T11:21:08.334Z,54.95692628018805
2023-04-16T11:24:12.858Z,53.139580212644404
2023-04-16T11:27:08.400Z,51.98488195699587
2023-04-16T11:30:06.952Z,52.272366054327044
2023-04-16T11:33:05.522Z,51.43180438847948
2023-04-16T11:36:02.102Z,51.210203552355345
2023-04-16T11:39:07.591Z,51.234964261879796
2023-04-16T11:42:03.223Z,51.06092185458706
2023-04-16T11:45:00.752Z,49.25449749605782
2023-04-16T11:47:57.358Z,49.279904518762926
2023-04-16T11:50:55.801Z,47.918072012056484
2023-04-16T11:53:52.451Z,44.684362388857
2023-04-16T11:56:49.956Z,44.35113477413777
2023-04-16T12:00:02.208Z,42.40052349347178
2023-04-16T12:02:51.322Z,42.533830029203486
2023-04-16T12:06:01.572Z,41.94737654490129
2023-04-16T12:09:06.128Z,42.3942358303898
2023-04-16T12:12:20.605Z,38.670019998942465
2023-04-16T12:15:22.146Z,38.514541251365124
2023-04-16T12:18:18.740Z,40.80247501321869
2023-04-16T12:21:15.316Z,42.50551664704393
2023-04-16T12:24:12.869Z,43.79982399845379
2023-04-16T12:27:10.445Z,43.944214432666
2023-04-16T12:30:07.028Z,45.086420523202875
2023-04-16T12:33:12.558Z,44.794321154071255
2023-04-16T12:36:18.075Z,45.11080888445363
2023-04-16T12:39:14.624Z,47.633241448521666
2023-04-16T12:42:12.180Z,49.634527659975475
2023-04-16T12:45:08.683Z,48.49644536767142
2023-04-16T12:48:05.352Z,48.050451658368374
2023-04-16T12:51:02.826Z,46.58175208546755
2023-04-16T12:53:59.398Z,46.381036932000704
2023-04-16T12:56:55.994Z,46.00034754367117
2023-04-16T12:59:52.518Z,46.81453172842995
2023-04-16T13:02:48.237Z,47.578361512153975
2023-04-16T13:05:45.613Z,48.02420417891595
2023-04-16T13:08:42.191Z,48.080227197303245
2023-04-16T13:11:38.694Z,47.81828870628689
2023-04-16T13:14:36.328Z,48.73796655336924
2023-04-16T13:17:32.826Z,51.27617110852091
2023-04-16T13:20:28.431Z,57.104547113394474
2023-04-16T13:23:23.978Z,62.10752629767091
2023-04-16T13:26:21.535Z,65.41262038516636
2023-04-16T13:29:17.134Z,67.04197106019463
2023-04-16T13:32:14.674Z,67.5847570238603
2023-04-16T13:35:11.204Z,66.32584765387472
2023-04-16T13:38:07.817Z,65.61937961317835
2023-04-16T13:41:04.331Z,63.926167990233964
2023-04-16T13:44:00.911Z,64.33019040470184
2023-04-16T13:46:58.496Z,65.1918676721137
2023-04-16T13:49:55.016Z,65.89475588395696
2023-04-16T13:52:50.549Z,63.99059125755323
2023-04-16T13:55:51.098Z,63.67360055332913
2023-04-16T13:58:48.689Z,63.77828350670327
2023-04-16T14:01:44.276Z,64.1249603838094
2023-04-16T14:04:39.921Z,63.20386528849251
2023-04-16T14:07:37.355Z,63.38949324332573
2023-04-16T14:10:32.911Z,61.884333565699606
2023-04-16T14:13:29.481Z,61.110868594298694
2023-04-16T14:16:27.039Z,60.721314018854486
2023-04-16T14:19:23.586Z,60.13640496864371
2023-04-16T14:22:19.133Z,59.748829261197514
2023-04-16T14:25:14.674Z,59.16370749743468
2023-04-16T14:28:12.245Z,59.79672462356276
2023-04-16T14:31:09.131Z,59.87538208734748
2023-04-16T14:34:04.365Z,60.325923721948186
2023-04-16T14:37:03.975Z,60.23832145216727
2023-04-16T14:40:00.503Z,59.29636427095325
2023-04-16T14:42:56.038Z,59.22724493723214
2023-04-16T14:45:52.873Z,58.56786966977144
2023-04-16T14:48:48.186Z,58.199566330818605
2023-04-16T14:51:45.714Z,58.20444584417251
2023-04-16T14:54:41.295Z,57.79275709189549
2023-04-16T14:57:38.864Z,57.10181926397856
2023-04-16T15:00:40.368Z,57.757034912928006
2023-04-16T15:03:38.106Z,57.68538808337635
2023-04-16T15:06:36.009Z,57.24641344216371
2023-04-16T15:09:34.077Z,57.01609934672102
2023-04-16T15:12:31.630Z,56.99855034533674
2023-04-16T15:15:27.185Z,56.473531150545654
2023-04-16T15:18:24.852Z,56.59343622212184
2023-04-16T15:21:21.319Z,56.07123884754084
2023-04-16T15:24:16.824Z,55.57378783135579
2023-04-16T15:27:14.408Z,55.5791625475568
2023-04-16T15:30:11.994Z,55.43917694936892
2023-04-16T15:33:08.551Z,55.37534902366544
2023-04-16T15:36:06.071Z,54.74022663192328
2023-04-16T15:39:02.645Z,54.61998514267623
2023-04-16T15:42:02.991Z,54.96948224715853
2023-04-16T15:45:02.710Z,55.1899854440133
2023-04-16T15:47:58.371Z,55.085844707855976
2023-04-16T15:50:54.844Z,55.61650332604848
2023-04-16T15:53:51.410Z,55.33792770912486
2023-04-16T15:56:48.964Z,55.836060680962184
2023-04-16T16:00:03.192Z,55.853473840035896
2023-04-16T16:02:48.255Z,55.495197620853006
2023-04-16T16:05:46.687Z,55.45326424125249
2023-04-16T16:08:43.193Z,55.637088561114844
2023-04-16T16:11:40.764Z,55.76778270685838
2023-04-16T16:14:36.328Z,55.96695292024885
2023-04-16T16:17:32.864Z,56.130636635449044
2023-04-16T16:20:29.460Z,56.85966559162408
2023-04-16T16:23:25.973Z,57.416547945876424
2023-04-16T16:26:23.557Z,56.92665778143837
2023-04-16T16:29:20.115Z,56.858630981199504
2023-04-16T16:32:16.676Z,57.13748005068643
2023-04-16T16:35:12.232Z,56.471556454349965
2023-04-16T16:38:09.791Z,56.5659295576007
2023-04-16T16:41:06.364Z,56.892643436700524
2023-04-16T16:44:02.890Z,56.537807679049656
2023-04-16T16:46:59.491Z,56.25189269752833
2023-04-16T16:49:55.022Z,56.37688686188737
2023-04-16T16:52:53.580Z,56.16992325627203
2023-04-16T16:55:50.158Z,57.1543421127835
2023-04-16T16:58:48.699Z,57.943225647726706
2023-04-16T17:01:45.280Z,57.531195659305055
2023-04-16T17:04:40.885Z,59.09356217619843
2023-04-16T17:07:37.417Z,59.467624501677236
2023-04-16T17:10:32.955Z,59.47918838746119
2023-04-16T17:13:32.468Z,61.201422746568035
2023-04-16T17:16:29.041Z,63.22889238787023
2023-04-16T17:19:24.596Z,65.69147319337833
2023-04-16T17:22:21.162Z,67.6215316162421
2023-04-16T17:25:17.716Z,69.02749571900537
2023-04-16T17:28:13.259Z,70.0396561832247
2023-04-16T17:31:10.821Z,71.54947149527206
2023-04-16T17:34:07.393Z,73.06819353342838
2023-04-16T17:37:03.952Z,73.74368930297815
2023-04-16T17:40:01.541Z,72.38280645899717
2023-04-16T17:42:58.044Z,71.91561709559124
2023-04-16T17:45:54.675Z,73.39224917174741
2023-04-16T17:48:51.182Z,74.28833347321962
2023-04-16T17:51:48.739Z,74.35570466966317
2023-04-16T17:54:45.317Z,74.56446353344984
2023-04-16T17:57:41.861Z,75.51512267846468
2023-04-16T18:00:42.442Z,75.92035677128504
2023-04-16T18:03:42.133Z,75.99400757052709
2023-04-16T18:06:37.532Z,76.30196056747118
2023-04-16T18:09:34.043Z,76.84429984845397
2023-04-16T18:12:32.652Z,77.28711936685369
2023-04-16T18:15:29.258Z,77.12581009837756
2023-04-16T18:18:25.795Z,77.09604315843322
2023-04-16T18:21:22.308Z,76.8773214049479
2023-04-16T18:24:18.906Z,77.11804307304375
2023-04-16T18:27:14.450Z,76.86023250664158
2023-04-16T18:30:19.984Z,77.07918275815109
2023-04-16T18:36:14.103Z,77.25510996573739
2023-04-16T18:39:10.636Z,77.0291234823769
2023-04-16T18:42:06.227Z,77.30657447412361
2023-04-16T18:45:01.748Z,77.0312359902661
2023-04-16T18:47:58.344Z,76.71446679244558
2023-04-16T18:50:54.879Z,76.99921368487324
2023-04-16T18:53:51.432Z,77.11103595961792
2023-04-16T18:56:46.997Z,77.64560328121483
2023-04-16T18:59:43.517Z,77.70982278342584
2023-04-16T19:02:41.212Z,77.79211714126009
2023-04-16T19:05:39.677Z,77.45767076840416
2023-04-16T19:08:36.198Z,77.30472401510745
2023-04-16T19:11:32.778Z,77.36873328739172
2023-04-16T19:14:29.353Z,77.66113868630075
2023-04-16T19:17:26.945Z,78.07820163570044
2023-04-16T19:20:23.450Z,77.94854744873389
2023-04-16T19:23:18.993Z,78.19826187871935
2023-04-16T19:26:15.573Z,77.99674437554728
2023-04-16T19:29:11.367Z,78.15007560115289
2023-04-16T19:32:07.776Z,78.10911170750866
2023-04-16T19:35:04.252Z,78.53329221634797
2023-04-16T19:38:00.870Z,78.70994586690298
2023-04-16T19:40:56.361Z,78.25819854100554
2023-04-16T19:43:53.955Z,77.6075458022007
2023-04-16T19:46:49.527Z,77.19863966740817
2023-04-16T19:49:46.054Z,76.73633767747894
2023-04-16T19:52:41.614Z,76.50440163772609
2023-04-16T19:55:43.188Z,76.25659915303778
2023-04-16T19:58:38.711Z,76.55321728596715
2023-04-16T20:01:39.336Z,76.6652230988758
2023-04-16T20:04:35.821Z,75.94323073651599
2023-04-16T20:07:38.387Z,75.79236675648693
2023-04-16T20:10:40.937Z,76.45880441037663
2023-04-16T20:13:38.717Z,76.3496152276278
2023-04-16T20:16:38.063Z,75.78596022205723
2023-04-16T20:19:37.610Z,75.74666968008103
2023-04-16T20:22:44.433Z,75.0700960215714
2023-04-16T20:25:41.678Z,74.3625900154151
2023-04-16T20:28:39.200Z,74.28480916421138
2023-04-16T20:31:35.109Z,74.238313794117
2023-04-16T20:34:31.318Z,73.84139471946101
2023-04-16T20:37:28.896Z,73.95067475382484
2023-04-16T20:40:30.497Z,73.8634392206085
2023-04-16T20:43:29.069Z,74.08810529066304
2023-04-16T20:46:25.583Z,74.5902535525432
2023-04-16T20:49:23.119Z,74.21760927391043
2023-04-16T20:52:19.722Z,74.55671062522619
2023-04-16T20:55:17.221Z,75.40519373602473
2023-04-16T20:58:12.802Z,75.58724233279108
2023-04-16T21:01:08.413Z,75.84065694482352
2023-04-16T21:04:09.091Z,76.49587040663788
2023-04-16T21:10:20.000Z,76.77333195164141
2023-04-16T21:13:16.590Z,77.1611419095389
2023-04-16T21:16:15.117Z,77.59119741932386
2023-04-16T21:19:11.990Z,77.8732474221362
2023-04-16T21:22:13.197Z,77.9089539276978
2023-04-16T21:25:13.772Z,78.26821097261288
2023-04-16T21:28:10.275Z,77.73375636776552
2023-04-16T21:31:06.837Z,77.67431063480113
2023-04-16T21:34:04.406Z,77.76575862258477
2023-04-16T21:37:00.937Z,77.77905070909443
2023-04-16T21:40:02.530Z,77.92490491534225
2023-04-16T21:43:01.080Z,77.90481299415262
2023-04-16T21:45:58.662Z,77.77201016245732
2023-04-16T21:48:55.201Z,77.87211721313417
2023-04-16T21:52:06.631Z,77.95806346858114
2023-04-16T21:55:09.269Z,77.52957422881202
2023-04-16T21:58:06.813Z,77.35208677355563
2023-04-16T22:01:03.364Z,77.03525816823733
2023-04-16T22:04:03.995Z,76.6323004912141
2023-04-16T22:07:02.500Z,76.33640188387716
2023-04-16T22:09:58.033Z,75.92643744558275
2023-04-16T22:12:54.576Z,75.31786076889726
2023-04-16T22:15:51.150Z,75.03553915793569
2023-04-16T22:18:47.703Z,74.5945665682444
2023-04-16T22:21:43.251Z,74.58208261348445
2023-04-16T22:24:38.796Z,74.23380898675691
2023-04-16T22:27:35.385Z,74.14621297761776
2023-04-16T22:30:30.930Z,73.28699992913313
2023-04-16T22:33:28.499Z,73.35668484385798
2023-04-16T22:36:24.043Z,72.85693910327436
2023-04-16T22:39:22.635Z,72.57312644627825
2023-04-16T22:42:18.224Z,72.08767595601643
2023-04-16T22:45:16.756Z,72.27258722924292
2023-04-16T22:48:13.318Z,71.74671027514772
2023-04-16T22:51:08.844Z,71.53786089029617
2023-04-16T22:54:04.450Z,71.34299865265233
2023-04-16T22:57:01.987Z,71.18543995675421
2023-04-16T22:59:58.526Z,71.03974492144314
2023-04-16T23:02:55.212Z,70.65556552552636
2023-04-16T23:05:52.699Z,70.37960180225825
2023-04-16T23:08:48.201Z,70.1785962500949
2023-04-16T23:11:43.759Z,69.66916188442974
2023-04-16T23:14:45.330Z,69.49578369531687
2023-04-16T23:20:50.411Z,68.91788838016313
2023-04-16T23:23:45.926Z,68.91261343595295
2023-04-16T23:26:41.547Z,68.60407959785152
2023-04-16T23:29:38.118Z,68.39116828611422
2023-04-16T23:32:33.657Z,68.57350743060903
2023-04-16T23:35:30.208Z,68.46879824551831
2023-04-16T23:38:26.769Z,68.31030981361407
2023-04-16T23:41:23.363Z,67.77889431979911
2023-04-16T23:44:19.867Z,67.43026253182812
2023-04-16T23:47:16.458Z,67.2501248948358
2023-04-16T23:50:12.013Z,67.0444456041961
2023-04-16T23:53:07.576Z,67.55046204768539
2023-04-16T23:56:03.129Z,66.91859303336105
2023-04-16T23:58:58.699Z,66.42690473534077
